• Join FlightAware (Why Join?)
  • Login
  • US Flag 
11:41AM EDT


 

Airport Tracker/Info


-or-


 

Live Flight TrackerFlight Track Log ✈ CCQ600 ✈ 23-Jul-2013 ✈ KHON - KFSD

Flight Track Log - Related Links

Times and Time Zones

All times are in EDT time to prevent confusion due to time zone crossing. See the CCQ600 flight status page for this flight to view local times or setup timezone preferences in your user account.

Time Position Orientation Groundspeed Altitude Reporting Facility
EDT Latitude Longitude Course Direction KTS MPH feet Rate Location/Type
08:50PM 44.3244 -98.1175 127° Southeast 154 177 4,400  Level Minneapolis Center
08:52PM 44.3042 -98.0756 124° Southeast 133 153 5,100 660 Climbing Minneapolis Center
08:53PM 44.2644 -97.9992 126° Southeast 144 166 6,100 720 Climbing Minneapolis Center
08:54PM 44.2394 -97.9492 125° Southeast 151 174 6,800 480 Climbing Minneapolis Center
08:55PM 44.2119 -97.8978 127° Southeast 160 184 7,100 60 Climbing Minneapolis Center
08:56PM 44.2185 -97.9137 127° Southeast  Level Estimated
08:56PM 44.1831 -97.8397 125° Southeast 169 194 7,000  Level Minneapolis Center
08:57PM 44.1483 -97.7775 128° Southeast 186 214 7,000  Level Minneapolis Center
08:58PM 44.1139 -97.7164 128° Southeast 193 222 7,000  Level Minneapolis Center
08:59PM 44.0739 -97.6433 127° Southeast 197 227 7,000  Level Minneapolis Center
09:00PM 44.0422 -97.5800 125° Southeast 199 229 7,000  Level Minneapolis Center
09:01PM 44.0111 -97.5203 126° Southeast 197 227 7,000  Level Minneapolis Center
09:02PM 43.9775 -97.4589 127° Southeast 197 227 7,000  Level Minneapolis Center
09:03PM 43.9378 -97.3872 128° Southeast 197 227 7,000 -300 Level Minneapolis Center
09:04PM 43.9014 -97.3261 130° Southeast 199 229 6,400 -540 Descending Minneapolis Center
09:05PM 43.8664 -97.2586 126° Southeast 207 238 5,900 -540 Descending Minneapolis Center
09:06PM 43.8314 -97.1917 126° Southeast 212 244 5,300 -360 Descending Minneapolis Center
09:08PM 43.7927 -97.1447 139° Southeast  Level FlightAware Approximate
09:08PM 43.7542 -97.0658 139° Southeast 201 231 4,800  Level Minneapolis Center
09:10PM 43.7181 -97.0147 134° Southeast 194 223 4,200 -420 Descending Minneapolis Center
09:11PM 43.6814 -96.9656 136° Southeast 189 217 4,000 -120 Descending Minneapolis Center
09:12PM 43.6378 -96.9428 159° South 178 205 4,000 -300 Level Minneapolis Center
09:13PM 43.5933 -96.9194 159° South 172 198 3,400 -540 Descending Minneapolis Center
09:14PM 43.5608 -96.8767 136° Southeast 174 200 3,000 -480 Descending Minneapolis Center
09:15PM 43.5536 -96.8064 98° East 164 189 2,500 -540 Descending Minneapolis Center
09:16PM 43.5656 -96.7578 71° East 152 175 1,900 -600 Descending Minneapolis Center
09:18PM 43.5667 -96.7333 128° Southeast  Level FlightAware Approximate